createdAt,value
2023-12-09T00:02:18.435Z,36.70
2023-12-09T00:04:45.434Z,34.63
2023-12-09T00:07:12.481Z,34.97
2023-12-09T00:09:39.447Z,35.27
2023-12-09T00:12:06.350Z,34.77
2023-12-09T00:14:33.311Z,34.03
2023-12-09T00:17:00.257Z,33.87
2023-12-09T00:19:27.686Z,35.17
2023-12-09T00:21:54.658Z,33.03
2023-12-09T00:24:21.669Z,34.63
2023-12-09T00:26:48.791Z,34.30
2023-12-09T00:29:15.698Z,34.77
2023-12-09T00:31:43.265Z,32.07
2023-12-09T00:34:10.720Z,31.20
2023-12-09T00:36:37.677Z,31.17
2023-12-09T00:39:04.704Z,32.33
2023-12-09T00:41:31.524Z,34.07
2023-12-09T00:43:58.354Z,33.63
2023-12-09T00:46:25.224Z,32.50
2023-12-09T00:48:52.249Z,31.97
2023-12-09T00:51:19.239Z,29.57
2023-12-09T00:53:46.869Z,31.27
2023-12-09T00:56:14.314Z,30.67
2023-12-09T00:58:43.209Z,29.07
2023-12-09T01:01:10.218Z,29.97
2023-12-09T01:03:37.287Z,29.67
2023-12-09T01:06:04.486Z,29.50
2023-12-09T01:08:31.498Z,30.43
2023-12-09T01:10:58.311Z,29.90
2023-12-09T01:13:25.314Z,28.43
2023-12-09T01:15:52.256Z,28.77
2023-12-09T01:18:19.135Z,26.60
2023-12-09T01:20:46.701Z,27.30
2023-12-09T01:23:14.496Z,28.70
2023-12-09T01:25:41.333Z,27.13
2023-12-09T01:28:08.252Z,28.07
2023-12-09T01:30:35.812Z,26.40
2023-12-09T01:33:02.820Z,25.83
2023-12-09T01:35:29.964Z,27.50
2023-12-09T01:37:56.957Z,27.03
2023-12-09T01:40:23.894Z,27.50
2023-12-09T01:42:50.689Z,28.67
2023-12-09T01:45:17.599Z,28.03
2023-12-09T01:47:44.700Z,26.50
2023-12-09T01:50:12.284Z,27.03
2023-12-09T01:52:39.316Z,26.40
2023-12-09T01:55:07.216Z,26.97
2023-12-09T01:57:34.079Z,25.47
2023-12-09T02:00:01.180Z,25.50
2023-12-09T02:02:28.511Z,25.23
2023-12-09T02:04:55.743Z,25.20
2023-12-09T02:07:22.772Z,25.07
2023-12-09T02:09:49.704Z,26.43
2023-12-09T02:12:20.336Z,25.30
2023-12-09T02:14:53.921Z,27.87
2023-12-09T02:17:22.222Z,24.77
2023-12-09T02:19:49.289Z,23.93
2023-12-09T02:22:16.650Z,25.77
2023-12-09T02:24:44.142Z,26.37
2023-12-09T02:27:22.622Z,27.23
2023-12-09T02:30:08.364Z,25.33
2023-12-09T02:32:36.278Z,24.53
2023-12-09T02:35:04.043Z,24.50
2023-12-09T02:37:32.071Z,24.77
2023-12-09T02:40:00.859Z,26.93
2023-12-09T02:42:28.357Z,24.70
2023-12-09T02:44:56.436Z,23.67
2023-12-09T02:47:23.322Z,25.50
2023-12-09T02:49:51.086Z,25.50
2023-12-09T02:52:17.989Z,22.60
2023-12-09T02:54:45.443Z,25.10
2023-12-09T02:57:12.461Z,23.90
2023-12-09T02:59:40.127Z,24.50
2023-12-09T03:02:07.013Z,25.83
2023-12-09T03:04:34.339Z,24.30
2023-12-09T03:07:01.339Z,24.10
2023-12-09T03:09:28.232Z,22.67
2023-12-09T03:11:55.312Z,26.27
2023-12-09T03:14:23.905Z,24.07
2023-12-09T03:16:50.802Z,25.33
2023-12-09T03:19:17.787Z,24.60
2023-12-09T03:21:45.053Z,23.97
2023-12-09T03:24:12.027Z,23.50
2023-12-09T03:26:38.948Z,24.50
2023-12-09T03:29:05.949Z,24.90
2023-12-09T03:31:32.925Z,23.50
2023-12-09T03:33:59.949Z,24.37
2023-12-09T03:36:26.836Z,23.40
2023-12-09T03:38:53.836Z,22.90
2023-12-09T03:41:23.055Z,24.07
2023-12-09T03:43:51.389Z,23.63
2023-12-09T03:46:18.278Z,23.50
2023-12-09T03:48:45.394Z,23.07
2023-12-09T03:51:12.333Z,24.27
2023-12-09T03:53:39.196Z,22.80
2023-12-09T03:56:06.325Z,21.50
2023-12-09T03:58:33.230Z,23.07
2023-12-09T04:01:00.130Z,23.90
2023-12-09T04:03:29.430Z,22.67
2023-12-09T04:05:56.563Z,21.43
2023-12-09T04:08:23.491Z,22.27
2023-12-09T04:10:50.379Z,20.90
2023-12-09T04:13:17.287Z,23.00
2023-12-09T04:15:44.177Z,20.03
2023-12-09T04:18:11.326Z,20.23
2023-12-09T04:20:38.468Z,18.83
2023-12-09T04:23:06.259Z,19.00
2023-12-09T04:25:33.218Z,19.73
2023-12-09T04:28:00.130Z,17.87
2023-12-09T04:30:27.186Z,18.27
2023-12-09T04:32:54.136Z,18.90
2023-12-09T04:35:21.023Z,18.23
2023-12-09T04:37:47.927Z,17.23
2023-12-09T04:40:17.944Z,17.40
2023-12-09T04:42:46.006Z,17.70
2023-12-09T04:45:13.004Z,16.83
2023-12-09T04:47:40.202Z,17.23
2023-12-09T04:50:10.007Z,18.07
2023-12-09T04:52:39.689Z,16.80
2023-12-09T04:55:06.861Z,17.53
2023-12-09T04:57:36.139Z,20.30
2023-12-09T05:00:06.989Z,16.87
2023-12-09T05:02:34.078Z,17.17
2023-12-09T05:05:00.984Z,14.90
2023-12-09T05:07:29.605Z,15.87
2023-12-09T05:09:56.822Z,18.13
2023-12-09T05:12:23.684Z,15.97
2023-12-09T05:14:50.681Z,16.53
2023-12-09T05:17:17.943Z,15.13
2023-12-09T05:19:45.145Z,17.10
2023-12-09T05:22:12.692Z,18.30
2023-12-09T05:24:39.834Z,16.23
2023-12-09T05:27:06.773Z,17.07
2023-12-09T05:29:33.672Z,16.10
2023-12-09T05:32:00.767Z,18.30
2023-12-09T05:34:30.100Z,15.93
2023-12-09T05:36:57.020Z,16.77
2023-12-09T05:39:23.998Z,16.00
2023-12-09T05:41:50.872Z,16.07
2023-12-09T05:44:17.920Z,16.37
2023-12-09T05:46:44.926Z,14.47
2023-12-09T05:49:11.809Z,16.23
2023-12-09T05:51:38.789Z,16.13
2023-12-09T05:54:05.788Z,15.27
2023-12-09T05:56:32.680Z,16.57
2023-12-09T05:58:59.668Z,15.50
2023-12-09T06:01:26.554Z,15.70
2023-12-09T06:03:53.891Z,16.03
2023-12-09T06:06:20.811Z,15.13
2023-12-09T06:08:47.886Z,15.07
2023-12-09T06:11:14.788Z,15.73
2023-12-09T06:13:41.779Z,17.37
2023-12-09T06:16:08.773Z,18.03
2023-12-09T06:18:35.840Z,17.23
2023-12-09T06:21:02.774Z,18.83
2023-12-09T06:23:29.750Z,16.47
2023-12-09T06:25:56.560Z,16.97
2023-12-09T06:28:23.486Z,21.13
2023-12-09T06:30:50.873Z,17.37
2023-12-09T06:33:18.493Z,18.40
2023-12-09T06:35:45.579Z,18.70
2023-12-09T06:38:12.501Z,17.70
2023-12-09T06:40:39.351Z,17.83
2023-12-09T06:43:06.415Z,18.50
2023-12-09T06:45:33.314Z,19.37
2023-12-09T06:48:00.434Z,17.33
2023-12-09T06:50:27.427Z,21.63
2023-12-09T06:52:54.439Z,17.50
2023-12-09T06:55:21.254Z,17.67
2023-12-09T06:57:48.394Z,18.03
2023-12-09T07:00:16.100Z,17.87
2023-12-09T07:02:52.956Z,16.40
2023-12-09T07:05:27.989Z,17.40
2023-12-09T07:07:54.935Z,16.20
2023-12-09T07:10:21.894Z,14.40
2023-12-09T07:12:49.165Z,16.00
2023-12-09T07:15:17.048Z,17.73
2023-12-09T07:17:44.214Z,15.40
2023-12-09T07:20:11.582Z,14.93
2023-12-09T07:22:38.452Z,14.73
2023-12-09T07:25:05.563Z,14.93
2023-12-09T07:27:32.617Z,15.30
2023-12-09T07:30:02.042Z,15.03
2023-12-09T07:32:29.556Z,14.40
2023-12-09T07:34:57.542Z,13.80
2023-12-09T07:37:25.132Z,14.20
2023-12-09T07:39:52.504Z,14.33
2023-12-09T07:42:19.802Z,13.87
2023-12-09T07:44:46.980Z,14.13
2023-12-09T07:47:13.816Z,13.77
2023-12-09T07:49:40.998Z,12.90
2023-12-09T07:52:07.900Z,12.70
2023-12-09T07:54:34.779Z,12.70
2023-12-09T07:57:02.070Z,14.03
2023-12-09T07:59:28.891Z,13.40
2023-12-09T08:01:55.945Z,14.07
2023-12-09T08:04:22.905Z,13.10
2023-12-09T08:06:49.817Z,13.13
2023-12-09T08:09:17.118Z,14.77
2023-12-09T08:11:44.264Z,13.23
2023-12-09T08:14:11.545Z,11.60
2023-12-09T08:16:38.458Z,12.90
2023-12-09T08:19:05.561Z,12.30
2023-12-09T08:21:38.966Z,12.37
2023-12-09T08:24:06.232Z,12.10
2023-12-09T08:26:33.524Z,12.77
2023-12-09T08:29:01.879Z,10.80
2023-12-09T08:31:28.708Z,12.03
2023-12-09T08:33:55.610Z,11.77
2023-12-09T08:36:22.732Z,13.43
2023-12-09T08:38:49.667Z,10.30
2023-12-09T08:41:16.628Z,12.90
2023-12-09T08:43:43.438Z,12.50
2023-12-09T08:46:10.300Z,12.23
2023-12-09T08:48:37.425Z,12.87
2023-12-09T08:51:05.100Z,11.70
2023-12-09T08:53:32.118Z,12.33
2023-12-09T08:55:59.012Z,12.67
2023-12-09T08:58:25.946Z,12.60
2023-12-09T09:00:53.545Z,11.50
2023-12-09T09:03:20.780Z,12.37
2023-12-09T09:05:47.908Z,11.93
2023-12-09T09:08:14.940Z,12.20
2023-12-09T09:10:41.853Z,14.20
2023-12-09T09:13:08.942Z,12.03
2023-12-09T09:15:37.390Z,13.27
2023-12-09T09:18:04.517Z,12.83
2023-12-09T09:20:31.407Z,12.97
2023-12-09T09:22:58.601Z,13.33
2023-12-09T09:25:25.531Z,13.83
2023-12-09T09:27:54.827Z,13.80
2023-12-09T09:30:23.783Z,12.67
2023-12-09T09:32:50.911Z,13.63
2023-12-09T09:35:17.823Z,12.53
2023-12-09T09:37:44.731Z,13.70
2023-12-09T09:40:13.137Z,14.20
2023-12-09T09:42:57.514Z,13.43
2023-12-09T09:45:28.615Z,13.63
2023-12-09T09:48:02.508Z,13.80
2023-12-09T09:50:30.354Z,13.93
2023-12-09T09:52:57.682Z,13.13
2023-12-09T09:55:27.031Z,13.90
2023-12-09T09:57:54.361Z,13.87
2023-12-09T10:00:23.113Z,16.07
2023-12-09T10:02:53.655Z,13.63
2023-12-09T10:05:22.458Z,17.03
2023-12-09T10:07:49.370Z,14.93
2023-12-09T10:10:18.166Z,16.33
2023-12-09T10:12:45.662Z,15.77
2023-12-09T10:15:13.047Z,15.00
2023-12-09T10:17:40.799Z,15.63
2023-12-09T10:20:09.924Z,16.47
2023-12-09T10:22:37.249Z,13.40
2023-12-09T10:25:04.269Z,15.80
2023-12-09T10:27:31.388Z,16.57
2023-12-09T10:29:58.972Z,15.80
2023-12-09T10:32:29.388Z,17.17
2023-12-09T10:34:56.859Z,15.03
2023-12-09T10:37:24.298Z,16.47
2023-12-09T10:39:52.400Z,16.93
2023-12-09T10:42:20.357Z,16.93
2023-12-09T10:44:48.790Z,18.27
2023-12-09T10:47:15.704Z,16.10
2023-12-09T10:49:42.659Z,17.80
2023-12-09T10:52:10.151Z,17.30
2023-12-09T10:54:37.316Z,17.17
2023-12-09T10:57:04.706Z,17.70
2023-12-09T10:59:33.928Z,15.37
2023-12-09T11:02:01.649Z,17.87
2023-12-09T11:04:29.888Z,17.40
2023-12-09T11:06:59.836Z,18.73
2023-12-09T11:09:27.072Z,15.73
2023-12-09T11:11:53.963Z,17.03
2023-12-09T11:14:26.443Z,15.60
2023-12-09T11:16:53.598Z,16.73
2023-12-09T11:19:21.004Z,16.40
2023-12-09T11:21:48.180Z,15.30
2023-12-09T11:24:15.937Z,17.03
2023-12-09T11:26:47.495Z,14.83
2023-12-09T11:29:16.298Z,15.30
2023-12-09T11:31:51.136Z,14.73
2023-12-09T11:34:19.855Z,18.27
2023-12-09T11:36:47.576Z,14.43
2023-12-09T11:39:24.638Z,15.90
2023-12-09T11:41:51.787Z,15.20
2023-12-09T11:44:18.773Z,14.40
2023-12-09T11:46:48.216Z,17.00
2023-12-09T11:49:15.773Z,16.10
2023-12-09T11:51:42.899Z,16.53
2023-12-09T11:54:10.561Z,16.77
2023-12-09T11:56:39.032Z,16.37
2023-12-09T11:59:07.114Z,15.83
2023-12-09T12:01:35.437Z,14.47
2023-12-09T12:04:02.538Z,14.37
2023-12-09T12:06:29.680Z,16.73
2023-12-09T12:08:59.555Z,15.27
2023-12-09T12:11:26.602Z,17.00
2023-12-09T12:13:53.769Z,19.87
2023-12-09T12:16:20.973Z,17.57
2023-12-09T12:18:49.011Z,17.93
2023-12-09T12:21:16.704Z,16.40
2023-12-09T12:23:44.013Z,17.27
2023-12-09T12:26:12.911Z,17.33
2023-12-09T12:28:40.024Z,18.37
2023-12-09T12:31:07.976Z,18.77
2023-12-09T12:33:35.278Z,30.37
2023-12-09T12:36:02.610Z,16.80
2023-12-09T12:38:29.876Z,32.83
2023-12-09T12:40:58.725Z,19.60
2023-12-09T12:43:29.995Z,21.17
2023-12-09T12:45:58.778Z,19.57
2023-12-09T12:48:26.109Z,18.43
2023-12-09T12:50:54.051Z,19.63
2023-12-09T12:53:21.841Z,16.87
2023-12-09T12:55:49.255Z,18.97
2023-12-09T12:58:16.971Z,17.23
2023-12-09T13:00:44.599Z,16.97
2023-12-09T13:03:11.655Z,17.50
2023-12-09T13:05:38.688Z,19.37
2023-12-09T13:08:06.279Z,18.67
2023-12-09T13:10:33.331Z,17.53
2023-12-09T13:13:00.321Z,18.20
2023-12-09T13:15:27.382Z,17.57
2023-12-09T13:17:54.620Z,18.70
2023-12-09T13:20:21.510Z,17.70
2023-12-09T13:22:48.483Z,16.63
2023-12-09T13:25:17.821Z,16.50
2023-12-09T13:27:45.830Z,17.87
2023-12-09T13:30:14.813Z,17.53
2023-12-09T13:32:42.150Z,17.53
2023-12-09T13:35:09.149Z,17.17
2023-12-09T13:37:37.710Z,17.57
2023-12-09T13:40:06.583Z,17.00
2023-12-09T13:42:33.776Z,18.80
2023-12-09T13:45:02.937Z,18.33
2023-12-09T13:47:29.838Z,17.67
2023-12-09T13:49:57.061Z,19.07
2023-12-09T13:52:27.970Z,18.03
2023-12-09T13:54:55.156Z,18.23
2023-12-09T13:57:22.028Z,17.30
2023-12-09T13:59:48.900Z,17.70
2023-12-09T14:02:16.006Z,19.33
2023-12-09T14:04:42.971Z,17.47
2023-12-09T14:07:09.928Z,15.77
2023-12-09T14:09:36.947Z,17.60
2023-12-09T14:12:04.084Z,17.03
2023-12-09T14:14:31.890Z,16.43
2023-12-09T14:16:58.973Z,17.50
2023-12-09T14:19:26.036Z,17.20
2023-12-09T14:21:54.921Z,15.90
2023-12-09T14:24:24.901Z,17.83
2023-12-09T14:26:51.978Z,14.33
2023-12-09T14:29:18.783Z,16.63
2023-12-09T14:31:46.007Z,16.60
2023-12-09T14:34:13.006Z,15.70
2023-12-09T14:36:40.213Z,16.20
2023-12-09T14:39:10.770Z,16.17
2023-12-09T14:41:37.962Z,14.27
2023-12-09T14:44:08.642Z,14.73
2023-12-09T14:46:36.697Z,15.03
2023-12-09T14:49:04.919Z,15.43
2023-12-09T14:54:02.134Z,15.40
2023-12-09T14:56:29.102Z,15.37
2023-12-09T14:58:56.276Z,14.87
2023-12-09T15:01:23.130Z,14.07
2023-12-09T15:03:52.298Z,15.57
2023-12-09T15:06:19.287Z,16.17
2023-12-09T15:08:46.172Z,15.50
2023-12-09T15:11:13.579Z,14.13
2023-12-09T15:13:40.787Z,14.20
2023-12-09T15:16:07.852Z,15.73
2023-12-09T15:18:34.832Z,15.23
2023-12-09T15:21:01.755Z,14.90
2023-12-09T15:23:28.608Z,15.33
2023-12-09T15:25:56.472Z,14.60
2023-12-09T15:28:23.328Z,16.00
2023-12-09T15:30:50.296Z,15.93
2023-12-09T15:33:19.878Z,14.83
2023-12-09T15:35:48.036Z,16.47
2023-12-09T15:38:14.939Z,14.40
2023-12-09T15:40:41.828Z,14.27
2023-12-09T15:43:09.616Z,15.93
2023-12-09T15:45:36.601Z,16.13
2023-12-09T15:48:05.036Z,16.60
2023-12-09T15:50:34.682Z,16.80
2023-12-09T15:53:01.707Z,16.23
2023-12-09T15:55:30.986Z,16.70
2023-12-09T15:57:59.308Z,16.67
2023-12-09T16:00:26.982Z,15.93
2023-12-09T16:02:54.103Z,15.27
2023-12-09T16:05:21.115Z,15.53
2023-12-09T16:07:48.249Z,15.93
2023-12-09T16:10:16.157Z,15.90
2023-12-09T16:12:46.704Z,15.73
2023-12-09T16:15:14.119Z,16.53
2023-12-09T16:17:42.243Z,18.17
2023-12-09T16:20:09.728Z,17.73
2023-12-09T16:22:36.563Z,16.87
2023-12-09T16:25:04.476Z,15.60
2023-12-09T16:27:32.892Z,17.00
2023-12-09T16:30:00.695Z,16.47
2023-12-09T16:32:28.177Z,17.03
2023-12-09T16:34:55.244Z,16.03
2023-12-09T16:37:25.669Z,18.23
2023-12-09T16:39:52.780Z,15.53
2023-12-09T16:42:19.884Z,16.67
2023-12-09T16:44:46.946Z,15.27
2023-12-09T16:47:14.039Z,17.50
2023-12-09T16:49:41.000Z,16.37
2023-12-09T16:52:08.472Z,15.47
2023-12-09T16:54:35.491Z,15.00
2023-12-09T16:57:02.452Z,14.37
2023-12-09T16:59:30.083Z,13.83
2023-12-09T17:01:56.995Z,14.20
2023-12-09T17:04:25.156Z,18.20
2023-12-09T17:06:54.707Z,15.57
2023-12-09T17:09:21.886Z,15.13
2023-12-09T17:11:50.635Z,12.63
2023-12-09T17:14:17.623Z,14.23
2023-12-09T17:16:44.963Z,15.90
2023-12-09T17:19:12.017Z,15.27
2023-12-09T17:21:39.050Z,13.90
2023-12-09T17:24:08.201Z,14.23
2023-12-09T17:26:36.204Z,15.50
2023-12-09T17:29:03.486Z,14.83
2023-12-09T17:31:30.611Z,16.40
2023-12-09T17:33:57.816Z,14.97
2023-12-09T17:36:27.356Z,14.30
2023-12-09T17:38:54.665Z,11.93
2023-12-09T17:41:21.989Z,14.63
2023-12-09T17:43:51.830Z,14.33
2023-12-09T17:46:19.038Z,13.33
2023-12-09T17:48:45.939Z,13.77
2023-12-09T17:51:13.039Z,14.27
2023-12-09T17:53:39.932Z,12.53
2023-12-09T17:56:07.242Z,11.67
2023-12-09T17:58:34.099Z,14.27
2023-12-09T18:01:01.323Z,12.67
2023-12-09T18:03:28.311Z,13.43
2023-12-09T18:05:55.474Z,14.43
2023-12-09T18:08:22.642Z,14.93
2023-12-09T18:10:49.482Z,12.73
2023-12-09T18:13:17.106Z,14.80
2023-12-09T18:15:45.697Z,14.37
2023-12-09T18:18:14.865Z,12.93
2023-12-09T18:20:41.831Z,12.53
2023-12-09T18:23:08.765Z,12.83
2023-12-09T18:25:35.618Z,12.60
2023-12-09T18:28:03.971Z,13.10
2023-12-09T18:30:31.602Z,12.47
2023-12-09T18:32:59.354Z,12.43
2023-12-09T18:35:26.449Z,13.33
2023-12-09T18:37:53.435Z,12.77
2023-12-09T18:40:21.997Z,13.20
2023-12-09T18:42:51.733Z,12.23
2023-12-09T18:45:19.355Z,12.43
2023-12-09T18:47:47.442Z,14.87
2023-12-09T18:50:14.859Z,15.17
2023-12-09T18:52:41.795Z,14.90
2023-12-09T18:55:09.433Z,14.83
2023-12-09T18:57:37.369Z,13.27
2023-12-09T19:00:05.562Z,14.07
2023-12-09T19:02:33.700Z,13.27
2023-12-09T19:05:01.198Z,12.60
2023-12-09T19:07:28.894Z,13.50
2023-12-09T19:09:55.965Z,15.90
2023-12-09T19:12:23.094Z,14.20
2023-12-09T19:14:50.187Z,13.43
2023-12-09T19:17:17.166Z,13.90
2023-12-09T19:19:44.200Z,12.00
2023-12-09T19:22:12.620Z,12.50
2023-12-09T19:24:39.536Z,12.33
2023-12-09T19:27:06.662Z,10.73
2023-12-09T19:29:33.916Z,10.90
2023-12-09T19:32:01.204Z,12.60
2023-12-09T19:34:28.253Z,12.07
2023-12-09T19:36:55.198Z,12.83
2023-12-09T19:39:22.168Z,11.33
2023-12-09T19:41:49.106Z,11.73
2023-12-09T19:44:16.015Z,13.53
2023-12-09T19:46:42.861Z,11.60
2023-12-09T19:49:10.093Z,13.60
2023-12-09T19:51:37.175Z,13.13
2023-12-09T19:54:04.220Z,11.27
2023-12-09T19:56:31.151Z,10.90
2023-12-09T19:58:58.042Z,13.10
2023-12-09T20:01:25.024Z,12.23
2023-12-09T20:03:52.021Z,14.67
2023-12-09T20:06:19.767Z,12.50
2023-12-09T20:08:46.729Z,11.70
2023-12-09T20:11:14.092Z,12.27
2023-12-09T20:13:41.267Z,14.17
2023-12-09T20:16:08.839Z,13.00
2023-12-09T20:18:36.005Z,13.97
2023-12-09T20:21:03.104Z,13.77
2023-12-09T20:23:29.911Z,13.50
2023-12-09T20:25:56.750Z,12.63
2023-12-09T20:28:23.776Z,13.27
2023-12-09T20:30:51.305Z,12.97
2023-12-09T20:33:18.568Z,14.80
2023-12-09T20:35:45.493Z,13.03
2023-12-09T20:38:13.406Z,14.37
2023-12-09T20:40:40.348Z,13.37
2023-12-09T20:43:07.347Z,14.30
2023-12-09T20:45:34.454Z,13.67
2023-12-09T20:48:01.938Z,14.90
2023-12-09T20:50:28.807Z,15.00
2023-12-09T20:52:56.544Z,14.63
2023-12-09T20:55:23.572Z,15.37
2023-12-09T20:57:50.833Z,16.87
2023-12-09T21:00:18.028Z,16.03
2023-12-09T21:02:45.464Z,15.50
2023-12-09T21:05:12.679Z,17.40
2023-12-09T21:07:39.644Z,17.37
2023-12-09T21:10:06.864Z,16.23
2023-12-09T21:12:34.208Z,16.20
2023-12-09T21:15:02.158Z,16.97
2023-12-09T21:17:29.142Z,16.60
2023-12-09T21:19:56.024Z,17.63
2023-12-09T21:22:22.969Z,15.73
2023-12-09T21:24:49.936Z,16.73
2023-12-09T21:27:17.649Z,18.30
2023-12-09T21:29:44.501Z,16.77
2023-12-09T21:32:11.400Z,16.73
2023-12-09T21:34:38.452Z,17.73
2023-12-09T21:37:05.426Z,17.83
2023-12-09T21:39:32.583Z,17.47
2023-12-09T21:41:59.589Z,19.20
2023-12-09T21:44:26.557Z,18.57
2023-12-09T21:46:53.497Z,19.23
2023-12-09T21:49:20.684Z,20.00
2023-12-09T21:51:47.691Z,18.90
2023-12-09T21:54:15.563Z,18.37
2023-12-09T21:56:42.640Z,20.03
2023-12-09T21:59:09.584Z,20.83
2023-12-09T22:01:38.499Z,20.60
2023-12-09T22:04:05.817Z,21.73
2023-12-09T22:06:32.861Z,20.83
2023-12-09T22:09:00.602Z,22.87
2023-12-09T22:11:27.679Z,22.63
2023-12-09T22:13:54.628Z,23.63
2023-12-09T22:16:21.739Z,22.07
2023-12-09T22:18:49.584Z,21.87
2023-12-09T22:21:16.684Z,22.67
2023-12-09T22:23:43.860Z,20.50
2023-12-09T22:26:10.749Z,18.93
2023-12-09T22:28:40.865Z,20.27
2023-12-09T22:31:10.738Z,19.43
2023-12-09T22:33:38.193Z,21.50
2023-12-09T22:36:05.339Z,21.47
2023-12-09T22:38:32.196Z,22.40
2023-12-09T22:40:59.799Z,21.53
2023-12-09T22:43:26.865Z,21.17
2023-12-09T22:45:53.793Z,23.03
2023-12-09T22:48:21.825Z,26.20
2023-12-09T22:50:53.236Z,22.87
2023-12-09T22:53:20.944Z,23.57
2023-12-09T22:55:47.773Z,20.77
2023-12-09T22:58:14.695Z,23.30
2023-12-09T23:00:41.671Z,22.37
2023-12-09T23:03:08.695Z,23.50
2023-12-09T23:05:38.121Z,23.07
2023-12-09T23:08:05.225Z,23.30
2023-12-09T23:10:32.081Z,21.07
2023-12-09T23:12:59.015Z,21.67
2023-12-09T23:15:26.054Z,22.10
2023-12-09T23:17:53.020Z,24.13
2023-12-09T23:20:19.966Z,21.70
2023-12-09T23:22:46.998Z,23.73
2023-12-09T23:25:13.911Z,20.90
2023-12-09T23:27:40.922Z,22.73
2023-12-09T23:30:08.314Z,22.97
2023-12-09T23:32:35.222Z,22.57
2023-12-09T23:35:02.230Z,21.93
2023-12-09T23:37:29.148Z,23.03
2023-12-09T23:39:56.121Z,22.43
2023-12-09T23:42:23.224Z,22.93
2023-12-09T23:44:50.122Z,22.37
2023-12-09T23:47:17.073Z,23.30
2023-12-09T23:49:43.867Z,22.27
2023-12-09T23:52:10.818Z,23.20
2023-12-09T23:54:38.207Z,22.13
2023-12-09T23:57:05.693Z,22.07
2023-12-09T23:59:33.080Z,22.27
